Kezdőlap
METAR-TAF:

METAR-TAF

Repülőterek :

Buriram, Thaiföld

földrajzi szélesség: 15-13-46N, földrajzi hosszúság: 103-15-04E, magasság: 180 m

Jelenlegi meteorológiai megfigyelések

A jelentés 3 órával és 54 perccel ezelõtt készült, 16:00 UTC
Dél-délnyugati szél 5 kt
Hőmérséklet 28°C
Páratartalom 84%
Légköri nyomás 1006 hPa
Látótávolság 10 km, vagy több
Kevés felhő 3000 lábon

METAR: VTUO 131600Z 20005KT 9999 FEW030 28/25 Q1006 NOSIG

Idő: 02:54 (19:54 UTC)

Előrejelzés

A jelentés 2 órával és 54 perccel ezelõtt készült, 17:00 UTC
Az előrejelzés 13-én 18 óra UTC és 14-én 18 óra UTC között érvényes
Nyugat-délnyugati szél 5 kt
Látótávolság: 8000 m
Szórványos felhőzet 2500 lábon
14-én 09 óra UTC és 14-én 15 óra UTC között ideiglenes
Kevés felhő 1800 lábon, Cumulonimbus.
Szakadozott felhőzet 2500 lábon
zivatar, enyhe esõ,

TAF: VTUO 131700Z 1318/1418 24005KT 8000 SCT025 TEMPO 1409/1415 -TSRA FEW018CB BKN025

Meteorológiai megfigyelések és előrejelzések több, mint 4000 repülőtéren (METAR és TAF jelentéseket).

A térképen piros és sárga pontok jelzik az elérhető meteorológiai állomásokat.

Mozgassa az egeret a pont fölött, hogy megjelenjen az állomás neve.

Azután kattintson az időjárási megfigyelések és előrejelzések megtekintéséhez.

A térkép megváltoztatása: kattintson a fekete keresztel jelölt zöld gombra ráközelítéshez, a vonallal jelölt zöld gombra távolításhoz, vagy a zöld nyilakra a szomszédos térképek eléréséhez.


METAR-TAF: